sensor_id;sensor_type;location;lat;lon;timestamp;temperature;humidity
7738;DHT22;29398;45.328;5.558;2023-03-24T00:00:01;13.60;95.30
7738;DHT22;29398;45.328;5.558;2023-03-24T00:01:07;13.60;95.30
7738;DHT22;29398;45.328;5.558;2023-03-24T00:02:08;13.50;95.20
7738;DHT22;29398;45.328;5.558;2023-03-24T00:03:13;13.60;95.50
7738;DHT22;29398;45.328;5.558;2023-03-24T00:04:18;13.60;95.50
7738;DHT22;29398;45.328;5.558;2023-03-24T00:05:22;13.60;95.40
7738;DHT22;29398;45.328;5.558;2023-03-24T00:06:23;13.50;95.50
7738;DHT22;29398;45.328;5.558;2023-03-24T00:07:26;13.60;95.60
7738;DHT22;29398;45.328;5.558;2023-03-24T00:08:31;13.60;95.60
7738;DHT22;29398;45.328;5.558;2023-03-24T00:09:34;13.50;95.20
7738;DHT22;29398;45.328;5.558;2023-03-24T00:10:36;13.50;95.60
7738;DHT22;29398;45.328;5.558;2023-03-24T00:11:40;13.50;95.80
7738;DHT22;29398;45.328;5.558;2023-03-24T00:12:41;13.50;95.80
7738;DHT22;29398;45.328;5.558;2023-03-24T00:13:43;13.50;95.80
7738;DHT22;29398;45.328;5.558;2023-03-24T00:14:46;13.50;95.60
7738;DHT22;29398;45.328;5.558;2023-03-24T00:15:49;13.50;95.80
7738;DHT22;29398;45.328;5.558;2023-03-24T00:16:50;13.50;95.70
7738;DHT22;29398;45.328;5.558;2023-03-24T00:17:52;13.50;95.90
7738;DHT22;29398;45.328;5.558;2023-03-24T00:18:55;13.40;96.00
7738;DHT22;29398;45.328;5.558;2023-03-24T00:19:59;13.40;96.10
7738;DHT22;29398;45.328;5.558;2023-03-24T00:21:00;13.40;96.40
7738;DHT22;29398;45.328;5.558;2023-03-24T00:22:02;13.40;96.10
7738;DHT22;29398;45.328;5.558;2023-03-24T00:23:03;13.40;96.10
7738;DHT22;29398;45.328;5.558;2023-03-24T00:24:06;13.30;95.90
7738;DHT22;29398;45.328;5.558;2023-03-24T00:25:08;13.30;96.10
7738;DHT22;29398;45.328;5.558;2023-03-24T00:26:12;13.20;96.20
7738;DHT22;29398;45.328;5.558;2023-03-24T00:27:15;13.30;96.50
7738;DHT22;29398;45.328;5.558;2023-03-24T00:29:19;13.30;96.30
7738;DHT22;29398;45.328;5.558;2023-03-24T00:30:22;13.40;96.40
7738;DHT22;29398;45.328;5.558;2023-03-24T00:31:24;13.40;96.20
7738;DHT22;29398;45.328;5.558;2023-03-24T00:32:27;13.40;96.20
7738;DHT22;29398;45.328;5.558;2023-03-24T00:33:31;13.40;96.40
7738;DHT22;29398;45.328;5.558;2023-03-24T00:34:34;13.30;96.30
7738;DHT22;29398;45.328;5.558;2023-03-24T00:35:39;13.30;96.40
7738;DHT22;29398;45.328;5.558;2023-03-24T00:36:44;13.30;96.40
7738;DHT22;29398;45.328;5.558;2023-03-24T00:37:45;13.30;96.50
7738;DHT22;29398;45.328;5.558;2023-03-24T00:38:49;13.30;96.30
7738;DHT22;29398;45.328;5.558;2023-03-24T00:39:50;13.30;96.50
7738;DHT22;29398;45.328;5.558;2023-03-24T00:40:53;13.30;96.70
7738;DHT22;29398;45.328;5.558;2023-03-24T00:41:54;13.30;96.40
7738;DHT22;29398;45.328;5.558;2023-03-24T00:42:58;13.30;96.60
7738;DHT22;29398;45.328;5.558;2023-03-24T00:44:00;13.30;96.50
7738;DHT22;29398;45.328;5.558;2023-03-24T00:45:07;13.30;96.60
7738;DHT22;29398;45.328;5.558;2023-03-24T00:46:11;13.30;96.50
7738;DHT22;29398;45.328;5.558;2023-03-24T00:47:28;13.30;96.80
7738;DHT22;29398;45.328;5.558;2023-03-24T00:48:30;13.30;96.90
7738;DHT22;29398;45.328;5.558;2023-03-24T00:49:32;13.30;96.50
7738;DHT22;29398;45.328;5.558;2023-03-24T00:50:47;13.30;96.60
7738;DHT22;29398;45.328;5.558;2023-03-24T00:51:49;13.30;96.50
7738;DHT22;29398;45.328;5.558;2023-03-24T00:52:51;13.30;96.40
7738;DHT22;29398;45.328;5.558;2023-03-24T00:53:53;13.30;96.50
7738;DHT22;29398;45.328;5.558;2023-03-24T00:54:58;13.30;96.50
7738;DHT22;29398;45.328;5.558;2023-03-24T00:56:01;13.30;96.70
7738;DHT22;29398;45.328;5.558;2023-03-24T00:57:03;13.20;96.80
7738;DHT22;29398;45.328;5.558;2023-03-24T00:58:06;13.20;96.60
7738;DHT22;29398;45.328;5.558;2023-03-24T00:59:07;13.20;96.70
7738;DHT22;29398;45.328;5.558;2023-03-24T01:00:10;13.30;96.90
7738;DHT22;29398;45.328;5.558;2023-03-24T01:01:13;13.30;96.70
7738;DHT22;29398;45.328;5.558;2023-03-24T01:02:16;13.30;96.70
7738;DHT22;29398;45.328;5.558;2023-03-24T01:03:21;13.30;96.70
7738;DHT22;29398;45.328;5.558;2023-03-24T01:04:26;13.40;96.70
7738;DHT22;29398;45.328;5.558;2023-03-24T01:05:29;13.30;96.70
7738;DHT22;29398;45.328;5.558;2023-03-24T01:06:33;13.30;96.70
7738;DHT22;29398;45.328;5.558;2023-03-24T01:07:36;13.30;96.80
7738;DHT22;29398;45.328;5.558;2023-03-24T01:08:41;13.30;96.60
7738;DHT22;29398;45.328;5.558;2023-03-24T01:09:44;13.30;96.40
7738;DHT22;29398;45.328;5.558;2023-03-24T01:10:51;13.40;96.60
7738;DHT22;29398;45.328;5.558;2023-03-24T01:11:53;13.40;96.80
7738;DHT22;29398;45.328;5.558;2023-03-24T01:12:57;13.40;96.60
7738;DHT22;29398;45.328;5.558;2023-03-24T01:13:59;13.40;96.60
7738;DHT22;29398;45.328;5.558;2023-03-24T01:15:03;13.40;96.40
7738;DHT22;29398;45.328;5.558;2023-03-24T01:16:07;13.30;96.60
7738;DHT22;29398;45.328;5.558;2023-03-24T01:17:08;13.40;96.70
7738;DHT22;29398;45.328;5.558;2023-03-24T01:18:11;13.30;96.50
7738;DHT22;29398;45.328;5.558;2023-03-24T01:19:12;13.30;96.80
7738;DHT22;29398;45.328;5.558;2023-03-24T01:20:15;13.20;97.00
7738;DHT22;29398;45.328;5.558;2023-03-24T01:21:16;13.20;97.10
7738;DHT22;29398;45.328;5.558;2023-03-24T01:22:21;13.20;97.10
7738;DHT22;29398;45.328;5.558;2023-03-24T01:23:24;13.20;97.10
7738;DHT22;29398;45.328;5.558;2023-03-24T01:24:26;13.20;97.30
7738;DHT22;29398;45.328;5.558;2023-03-24T01:25:28;13.20;97.10
7738;DHT22;29398;45.328;5.558;2023-03-24T01:26:30;13.20;97.40
7738;DHT22;29398;45.328;5.558;2023-03-24T01:27:31;13.20;97.30
7738;DHT22;29398;45.328;5.558;2023-03-24T01:28:34;13.10;97.40
7738;DHT22;29398;45.328;5.558;2023-03-24T01:29:40;13.10;97.40
7738;DHT22;29398;45.328;5.558;2023-03-24T01:30:43;13.10;97.50
7738;DHT22;29398;45.328;5.558;2023-03-24T01:31:44;13.10;97.50
7738;DHT22;29398;45.328;5.558;2023-03-24T01:32:46;13.10;97.50
7738;DHT22;29398;45.328;5.558;2023-03-24T01:33:47;13.10;97.40
7738;DHT22;29398;45.328;5.558;2023-03-24T01:34:50;13.10;97.40
7738;DHT22;29398;45.328;5.558;2023-03-24T01:35:51;13.10;97.40
7738;DHT22;29398;45.328;5.558;2023-03-24T01:36:53;13.10;97.60
7738;DHT22;29398;45.328;5.558;2023-03-24T01:37:57;13.10;97.70
7738;DHT22;29398;45.328;5.558;2023-03-24T01:38:58;13.00;97.80
7738;DHT22;29398;45.328;5.558;2023-03-24T01:40:01;13.00;97.90
7738;DHT22;29398;45.328;5.558;2023-03-24T01:42:11;13.00;97.80
7738;DHT22;29398;45.328;5.558;2023-03-24T01:43:18;13.00;97.90
7738;DHT22;29398;45.328;5.558;2023-03-24T01:44:26;13.00;98.00
7738;DHT22;29398;45.328;5.558;2023-03-24T01:45:53;13.00;98.00
7738;DHT22;29398;45.328;5.558;2023-03-24T01:46:57;13.00;98.00
7738;DHT22;29398;45.328;5.558;2023-03-24T01:47:58;13.00;98.20
7738;DHT22;29398;45.328;5.558;2023-03-24T01:49:05;13.00;98.00
7738;DHT22;29398;45.328;5.558;2023-03-24T01:50:07;13.00;98.00
7738;DHT22;29398;45.328;5.558;2023-03-24T01:51:13;13.00;98.20
7738;DHT22;29398;45.328;5.558;2023-03-24T01:52:19;12.90;98.10
7738;DHT22;29398;45.328;5.558;2023-03-24T01:53:24;12.90;98.10
7738;DHT22;29398;45.328;5.558;2023-03-24T01:54:29;13.00;98.10
7738;DHT22;29398;45.328;5.558;2023-03-24T01:55:36;12.90;98.20
7738;DHT22;29398;45.328;5.558;2023-03-24T01:56:41;12.90;98.30
7738;DHT22;29398;45.328;5.558;2023-03-24T01:57:46;12.90;98.30
7738;DHT22;29398;45.328;5.558;2023-03-24T01:58:58;13.00;98.00
7738;DHT22;29398;45.328;5.558;2023-03-24T02:00:14;12.90;98.20
7738;DHT22;29398;45.328;5.558;2023-03-24T02:01:49;13.00;98.30
7738;DHT22;29398;45.328;5.558;2023-03-24T02:03:15;12.90;98.10
7738;DHT22;29398;45.328;5.558;2023-03-24T02:04:23;12.90;98.30
7738;DHT22;29398;45.328;5.558;2023-03-24T02:05:35;13.00;98.30
7738;DHT22;29398;45.328;5.558;2023-03-24T02:06:41;13.00;98.30
7738;DHT22;29398;45.328;5.558;2023-03-24T02:07:48;13.00;98.10
7738;DHT22;29398;45.328;5.558;2023-03-24T02:08:54;13.00;98.10
7738;DHT22;29398;45.328;5.558;2023-03-24T02:09:58;12.90;98.10
7738;DHT22;29398;45.328;5.558;2023-03-24T02:11:00;13.00;98.40
7738;DHT22;29398;45.328;5.558;2023-03-24T02:12:12;13.00;98.20
7738;DHT22;29398;45.328;5.558;2023-03-24T02:13:14;13.00;98.50
7738;DHT22;29398;45.328;5.558;2023-03-24T02:14:16;13.00;98.20
7738;DHT22;29398;45.328;5.558;2023-03-24T02:15:22;13.00;98.30
7738;DHT22;29398;45.328;5.558;2023-03-24T02:18:02;13.00;98.40
7738;DHT22;29398;45.328;5.558;2023-03-24T02:19:27;13.00;98.40
7738;DHT22;29398;45.328;5.558;2023-03-24T02:21:24;13.00;98.60
7738;DHT22;29398;45.328;5.558;2023-03-24T02:22:58;13.00;98.20
7738;DHT22;29398;45.328;5.558;2023-03-24T02:24:55;13.00;98.50
7738;DHT22;29398;45.328;5.558;2023-03-24T02:26:32;13.00;98.60
7738;DHT22;29398;45.328;5.558;2023-03-24T02:27:51;12.90;98.50
7738;DHT22;29398;45.328;5.558;2023-03-24T02:29:04;13.00;98.50
7738;DHT22;29398;45.328;5.558;2023-03-24T02:30:25;13.00;98.40
7738;DHT22;29398;45.328;5.558;2023-03-24T02:31:46;13.00;98.40
7738;DHT22;29398;45.328;5.558;2023-03-24T02:33:10;12.90;98.50
7738;DHT22;29398;45.328;5.558;2023-03-24T02:34:39;12.90;98.60
7738;DHT22;29398;45.328;5.558;2023-03-24T02:36:30;12.90;98.70
7738;DHT22;29398;45.328;5.558;2023-03-24T02:37:52;12.90;98.80
7738;DHT22;29398;45.328;5.558;2023-03-24T02:39:47;12.90;99.00
7738;DHT22;29398;45.328;5.558;2023-03-24T02:41:00;12.90;99.00
7738;DHT22;29398;45.328;5.558;2023-03-24T02:42:10;12.90;98.80
7738;DHT22;29398;45.328;5.558;2023-03-24T02:43:32;12.90;98.90
7738;DHT22;29398;45.328;5.558;2023-03-24T02:44:42;12.90;98.90
7738;DHT22;29398;45.328;5.558;2023-03-24T02:45:57;12.90;98.70
7738;DHT22;29398;45.328;5.558;2023-03-24T02:47:02;12.90;98.60
7738;DHT22;29398;45.328;5.558;2023-03-24T02:48:18;12.90;98.80
7738;DHT22;29398;45.328;5.558;2023-03-24T02:49:25;12.90;98.60
7738;DHT22;29398;45.328;5.558;2023-03-24T02:50:34;12.90;98.90
7738;DHT22;29398;45.328;5.558;2023-03-24T02:51:41;12.90;98.90
7738;DHT22;29398;45.328;5.558;2023-03-24T02:52:50;12.90;98.70
7738;DHT22;29398;45.328;5.558;2023-03-24T02:53:59;12.90;98.80
7738;DHT22;29398;45.328;5.558;2023-03-24T02:55:11;12.90;98.80
7738;DHT22;29398;45.328;5.558;2023-03-24T02:56:19;12.90;98.70
7738;DHT22;29398;45.328;5.558;2023-03-24T02:57:31;12.90;98.60
7738;DHT22;29398;45.328;5.558;2023-03-24T02:59:00;12.90;98.60
7738;DHT22;29398;45.328;5.558;2023-03-24T03:00:09;12.90;98.80
7738;DHT22;29398;45.328;5.558;2023-03-24T03:01:45;12.90;98.70
7738;DHT22;29398;45.328;5.558;2023-03-24T03:03:18;13.00;98.70
7738;DHT22;29398;45.328;5.558;2023-03-24T03:04:27;12.90;98.50
7738;DHT22;29398;45.328;5.558;2023-03-24T03:05:34;12.90;98.60
7738;DHT22;29398;45.328;5.558;2023-03-24T03:06:38;12.90;98.60
7738;DHT22;29398;45.328;5.558;2023-03-24T03:07:43;12.90;98.50
7738;DHT22;29398;45.328;5.558;2023-03-24T03:08:47;12.90;98.80
7738;DHT22;29398;45.328;5.558;2023-03-24T03:09:54;12.90;98.70
7738;DHT22;29398;45.328;5.558;2023-03-24T03:10:58;12.90;98.80
7738;DHT22;29398;45.328;5.558;2023-03-24T03:12:03;12.90;98.80
7738;DHT22;29398;45.328;5.558;2023-03-24T03:13:07;12.90;98.70
7738;DHT22;29398;45.328;5.558;2023-03-24T03:14:14;12.90;98.70
7738;DHT22;29398;45.328;5.558;2023-03-24T03:15:20;13.00;98.70
7738;DHT22;29398;45.328;5.558;2023-03-24T03:16:29;12.90;98.90
7738;DHT22;29398;45.328;5.558;2023-03-24T03:17:36;12.90;98.30
7738;DHT22;29398;45.328;5.558;2023-03-24T03:18:42;12.90;98.50
7738;DHT22;29398;45.328;5.558;2023-03-24T03:19:52;12.90;98.40
7738;DHT22;29398;45.328;5.558;2023-03-24T03:20:59;12.90;98.60
7738;DHT22;29398;45.328;5.558;2023-03-24T03:22:02;13.00;98.50
7738;DHT22;29398;45.328;5.558;2023-03-24T03:23:08;13.00;98.30
7738;DHT22;29398;45.328;5.558;2023-03-24T03:24:14;13.00;98.40
7738;DHT22;29398;45.328;5.558;2023-03-24T03:25:22;13.00;98.50
7738;DHT22;29398;45.328;5.558;2023-03-24T03:26:28;13.00;98.50
7738;DHT22;29398;45.328;5.558;2023-03-24T03:27:34;13.00;98.30
7738;DHT22;29398;45.328;5.558;2023-03-24T03:28:40;13.00;98.30
7738;DHT22;29398;45.328;5.558;2023-03-24T03:29:52;13.10;98.00
7738;DHT22;29398;45.328;5.558;2023-03-24T03:30:56;13.10;98.00
7738;DHT22;29398;45.328;5.558;2023-03-24T03:32:02;13.10;98.00
7738;DHT22;29398;45.328;5.558;2023-03-24T03:33:11;13.10;97.80
7738;DHT22;29398;45.328;5.558;2023-03-24T03:34:24;13.10;97.90
7738;DHT22;29398;45.328;5.558;2023-03-24T03:35:32;13.10;97.60
7738;DHT22;29398;45.328;5.558;2023-03-24T03:36:42;13.10;97.40
7738;DHT22;29398;45.328;5.558;2023-03-24T03:37:51;13.10;97.60
7738;DHT22;29398;45.328;5.558;2023-03-24T03:39:02;13.10;97.60
7738;DHT22;29398;45.328;5.558;2023-03-24T03:40:08;13.10;97.80
7738;DHT22;29398;45.328;5.558;2023-03-24T03:41:17;13.10;97.80
7738;DHT22;29398;45.328;5.558;2023-03-24T03:42:21;13.10;97.70
7738;DHT22;29398;45.328;5.558;2023-03-24T03:43:24;13.10;97.50
7738;DHT22;29398;45.328;5.558;2023-03-24T03:44:26;13.20;97.80
7738;DHT22;29398;45.328;5.558;2023-03-24T03:45:28;13.20;97.70
7738;DHT22;29398;45.328;5.558;2023-03-24T03:46:30;13.10;97.60
7738;DHT22;29398;45.328;5.558;2023-03-24T03:47:32;13.10;97.70
7738;DHT22;29398;45.328;5.558;2023-03-24T03:48:33;13.10;97.60
7738;DHT22;29398;45.328;5.558;2023-03-24T03:49:36;13.10;97.50
7738;DHT22;29398;45.328;5.558;2023-03-24T03:50:37;13.10;97.80
7738;DHT22;29398;45.328;5.558;2023-03-24T03:51:42;13.20;97.80
7738;DHT22;29398;45.328;5.558;2023-03-24T03:52:43;13.20;97.80
7738;DHT22;29398;45.328;5.558;2023-03-24T03:53:49;13.20;97.60
7738;DHT22;29398;45.328;5.558;2023-03-24T03:54:52;13.10;97.60
7738;DHT22;29398;45.328;5.558;2023-03-24T03:55:55;13.10;97.80
7738;DHT22;29398;45.328;5.558;2023-03-24T03:56:58;13.10;97.80
7738;DHT22;29398;45.328;5.558;2023-03-24T03:58:09;13.10;97.80
7738;DHT22;29398;45.328;5.558;2023-03-24T03:59:23;13.20;97.60
7738;DHT22;29398;45.328;5.558;2023-03-24T04:00:26;13.20;97.50
7738;DHT22;29398;45.328;5.558;2023-03-24T04:01:55;13.10;97.50
7738;DHT22;29398;45.328;5.558;2023-03-24T04:03:20;13.10;97.30
7738;DHT22;29398;45.328;5.558;2023-03-24T04:04:41;13.20;97.50
7738;DHT22;29398;45.328;5.558;2023-03-24T04:06:10;13.10;97.20
7738;DHT22;29398;45.328;5.558;2023-03-24T04:07:22;13.10;97.50
7738;DHT22;29398;45.328;5.558;2023-03-24T04:08:45;13.10;97.60
7738;DHT22;29398;45.328;5.558;2023-03-24T04:10:04;13.10;97.50
7738;DHT22;29398;45.328;5.558;2023-03-24T04:13:04;13.10;97.70
7738;DHT22;29398;45.328;5.558;2023-03-24T04:15:18;13.10;97.60
7738;DHT22;29398;45.328;5.558;2023-03-24T04:16:46;13.10;97.60
7738;DHT22;29398;45.328;5.558;2023-03-24T04:18:29;13.20;97.80
7738;DHT22;29398;45.328;5.558;2023-03-24T04:19:46;13.10;97.30
7738;DHT22;29398;45.328;5.558;2023-03-24T04:21:07;13.10;97.40
7738;DHT22;29398;45.328;5.558;2023-03-24T04:22:23;13.10;97.40
7738;DHT22;29398;45.328;5.558;2023-03-24T04:23:42;13.10;97.10
7738;DHT22;29398;45.328;5.558;2023-03-24T04:24:48;13.10;97.30
7738;DHT22;29398;45.328;5.558;2023-03-24T04:26:03;13.10;97.10
7738;DHT22;29398;45.328;5.558;2023-03-24T04:27:10;13.00;97.20
7738;DHT22;29398;45.328;5.558;2023-03-24T04:28:18;13.10;97.10
7738;DHT22;29398;45.328;5.558;2023-03-24T04:29:31;13.00;97.50
7738;DHT22;29398;45.328;5.558;2023-03-24T04:30:41;13.10;97.20
7738;DHT22;29398;45.328;5.558;2023-03-24T04:31:54;13.10;97.20
7738;DHT22;29398;45.328;5.558;2023-03-24T04:33:00;13.10;97.30
7738;DHT22;29398;45.328;5.558;2023-03-24T04:34:10;13.10;97.40
7738;DHT22;29398;45.328;5.558;2023-03-24T04:35:19;13.10;97.30
7738;DHT22;29398;45.328;5.558;2023-03-24T04:36:51;13.10;97.30
7738;DHT22;29398;45.328;5.558;2023-03-24T04:38:12;13.10;97.30
7738;DHT22;29398;45.328;5.558;2023-03-24T04:39:20;13.10;97.40
7738;DHT22;29398;45.328;5.558;2023-03-24T04:40:30;13.20;97.40
7738;DHT22;29398;45.328;5.558;2023-03-24T04:41:35;13.20;97.30
7738;DHT22;29398;45.328;5.558;2023-03-24T04:42:48;13.20;97.40
7738;DHT22;29398;45.328;5.558;2023-03-24T04:43:56;13.10;97.20
7738;DHT22;29398;45.328;5.558;2023-03-24T04:44:59;13.10;97.20
7738;DHT22;29398;45.328;5.558;2023-03-24T04:46:22;13.10;96.90
7738;DHT22;29398;45.328;5.558;2023-03-24T04:47:52;13.10;96.60
7738;DHT22;29398;45.328;5.558;2023-03-24T04:49:12;13.10;96.70
7738;DHT22;29398;45.328;5.558;2023-03-24T04:50:26;13.10;96.60
7738;DHT22;29398;45.328;5.558;2023-03-24T04:51:32;13.10;96.10
7738;DHT22;29398;45.328;5.558;2023-03-24T04:52:44;13.10;96.50
7738;DHT22;29398;45.328;5.558;2023-03-24T04:53:48;13.10;96.60
7738;DHT22;29398;45.328;5.558;2023-03-24T04:54:49;13.10;96.10
7738;DHT22;29398;45.328;5.558;2023-03-24T04:56:06;13.10;96.10
7738;DHT22;29398;45.328;5.558;2023-03-24T04:57:33;13.10;96.10
7738;DHT22;29398;45.328;5.558;2023-03-24T04:58:39;13.10;96.50
7738;DHT22;29398;45.328;5.558;2023-03-24T04:59:40;13.10;96.80
7738;DHT22;29398;45.328;5.558;2023-03-24T05:00:44;13.20;96.80
7738;DHT22;29398;45.328;5.558;2023-03-24T05:01:48;13.10;96.80
7738;DHT22;29398;45.328;5.558;2023-03-24T05:03:24;13.10;96.70
7738;DHT22;29398;45.328;5.558;2023-03-24T05:04:27;13.20;96.90
7738;DHT22;29398;45.328;5.558;2023-03-24T05:05:33;13.10;96.90
7738;DHT22;29398;45.328;5.558;2023-03-24T05:06:35;13.10;96.90
7738;DHT22;29398;45.328;5.558;2023-03-24T05:07:36;13.10;96.90
7738;DHT22;29398;45.328;5.558;2023-03-24T05:08:43;13.10;96.70
7738;DHT22;29398;45.328;5.558;2023-03-24T05:09:44;13.10;96.90
7738;DHT22;29398;45.328;5.558;2023-03-24T05:10:46;13.00;97.00
7738;DHT22;29398;45.328;5.558;2023-03-24T05:11:48;13.00;98.20
7738;DHT22;29398;45.328;5.558;2023-03-24T05:12:50;13.00;97.90
7738;DHT22;29398;45.328;5.558;2023-03-24T05:14:12;13.00;97.70
7738;DHT22;29398;45.328;5.558;2023-03-24T05:15:14;13.00;99.20
7738;DHT22;29398;45.328;5.558;2023-03-24T05:16:16;13.00;98.90
7738;DHT22;29398;45.328;5.558;2023-03-24T05:17:31;13.00;98.60
7738;DHT22;29398;45.328;5.558;2023-03-24T05:18:32;13.10;98.50
7738;DHT22;29398;45.328;5.558;2023-03-24T05:19:34;13.10;98.60
7738;DHT22;29398;45.328;5.558;2023-03-24T05:20:37;13.10;98.50
7738;DHT22;29398;45.328;5.558;2023-03-24T05:21:47;13.10;98.60
7738;DHT22;29398;45.328;5.558;2023-03-24T05:22:49;13.10;98.40
7738;DHT22;29398;45.328;5.558;2023-03-24T05:23:51;13.10;98.30
7738;DHT22;29398;45.328;5.558;2023-03-24T05:24:54;13.10;98.20
7738;DHT22;29398;45.328;5.558;2023-03-24T05:25:55;13.10;98.30
7738;DHT22;29398;45.328;5.558;2023-03-24T05:26:59;13.00;98.10
7738;DHT22;29398;45.328;5.558;2023-03-24T05:28:01;13.10;99.30
7738;DHT22;29398;45.328;5.558;2023-03-24T05:29:03;13.00;99.50
7738;DHT22;29398;45.328;5.558;2023-03-24T05:30:05;12.90;99.20
7738;DHT22;29398;45.328;5.558;2023-03-24T05:31:09;12.90;99.00
7738;DHT22;29398;45.328;5.558;2023-03-24T05:32:17;12.90;99.10
7738;DHT22;29398;45.328;5.558;2023-03-24T05:33:20;12.90;99.00
7738;DHT22;29398;45.328;5.558;2023-03-24T05:34:22;12.90;98.20
7738;DHT22;29398;45.328;5.558;2023-03-24T05:35:35;12.80;99.90
7738;DHT22;29398;45.328;5.558;2023-03-24T05:36:36;13.40;99.80
7738;DHT22;29398;45.328;5.558;2023-03-24T05:37:38;12.80;99.60
7738;DHT22;29398;45.328;5.558;2023-03-24T05:38:41;12.90;99.80
7738;DHT22;29398;45.328;5.558;2023-03-24T05:39:43;12.90;99.70
7738;DHT22;29398;45.328;5.558;2023-03-24T05:41:07;12.90;99.60
7738;DHT22;29398;45.328;5.558;2023-03-24T05:42:14;16.40;99.90
7738;DHT22;29398;45.328;5.558;2023-03-24T05:43:16;12.90;99.90
7738;DHT22;29398;45.328;5.558;2023-03-24T05:44:29;12.90;99.90
7738;DHT22;29398;45.328;5.558;2023-03-24T05:45:57;12.90;99.90
7738;DHT22;29398;45.328;5.558;2023-03-24T05:47:06;12.90;99.70
7738;DHT22;29398;45.328;5.558;2023-03-24T05:48:07;12.90;99.70
7738;DHT22;29398;45.328;5.558;2023-03-24T05:49:35;12.90;99.60
7738;DHT22;29398;45.328;5.558;2023-03-24T05:50:37;12.90;99.90
7738;DHT22;29398;45.328;5.558;2023-03-24T05:51:39;12.90;99.20
7738;DHT22;29398;45.328;5.558;2023-03-24T05:52:41;12.80;99.10
7738;DHT22;29398;45.328;5.558;2023-03-24T05:54:03;12.90;99.30
7738;DHT22;29398;45.328;5.558;2023-03-24T05:55:16;12.90;99.40
7738;DHT22;29398;45.328;5.558;2023-03-24T05:56:21;12.90;99.90
7738;DHT22;29398;45.328;5.558;2023-03-24T05:59:14;13.00;99.80
7738;DHT22;29398;45.328;5.558;2023-03-24T06:00:35;12.90;99.40
7738;DHT22;29398;45.328;5.558;2023-03-24T06:01:45;12.90;99.80
7738;DHT22;29398;45.328;5.558;2023-03-24T06:02:56;12.90;99.90
7738;DHT22;29398;45.328;5.558;2023-03-24T06:04:08;12.90;99.90
7738;DHT22;29398;45.328;5.558;2023-03-24T06:05:12;12.90;99.90
7738;DHT22;29398;45.328;5.558;2023-03-24T06:06:14;13.00;99.90
7738;DHT22;29398;45.328;5.558;2023-03-24T06:07:17;12.90;99.90
7738;DHT22;29398;45.328;5.558;2023-03-24T06:08:20;12.90;99.90
7738;DHT22;29398;45.328;5.558;2023-03-24T06:09:21;12.90;99.90
7738;DHT22;29398;45.328;5.558;2023-03-24T06:10:24;13.00;99.90
7738;DHT22;29398;45.328;5.558;2023-03-24T06:11:26;13.00;99.90
7738;DHT22;29398;45.328;5.558;2023-03-24T06:12:37;13.00;99.90
7738;DHT22;29398;45.328;5.558;2023-03-24T06:13:39;13.00;99.90
7738;DHT22;29398;45.328;5.558;2023-03-24T06:14:41;13.00;99.90
7738;DHT22;29398;45.328;5.558;2023-03-24T06:15:46;13.00;99.90
7738;DHT22;29398;45.328;5.558;2023-03-24T06:17:06;13.00;99.90
7738;DHT22;29398;45.328;5.558;2023-03-24T06:18:07;13.00;99.80
7738;DHT22;29398;45.328;5.558;2023-03-24T06:19:10;13.10;99.90
7738;DHT22;29398;45.328;5.558;2023-03-24T06:20:48;13.10;99.90
7738;DHT22;29398;45.328;5.558;2023-03-24T06:21:55;13.10;99.90
7738;DHT22;29398;45.328;5.558;2023-03-24T06:23:04;13.10;99.90
7738;DHT22;29398;45.328;5.558;2023-03-24T06:24:19;13.10;99.90
7738;DHT22;29398;45.328;5.558;2023-03-24T06:25:20;13.20;99.90
7738;DHT22;29398;45.328;5.558;2023-03-24T06:26:35;13.20;99.90
7738;DHT22;29398;45.328;5.558;2023-03-24T06:27:41;13.20;99.90
7738;DHT22;29398;45.328;5.558;2023-03-24T06:28:46;13.20;99.90
7738;DHT22;29398;45.328;5.558;2023-03-24T06:29:52;13.30;99.90
7738;DHT22;29398;45.328;5.558;2023-03-24T06:30:53;13.20;99.90
7738;DHT22;29398;45.328;5.558;2023-03-24T06:32:04;13.30;99.90
7738;DHT22;29398;45.328;5.558;2023-03-24T06:33:11;13.30;99.90
7738;DHT22;29398;45.328;5.558;2023-03-24T06:34:17;13.30;99.90
7738;DHT22;29398;45.328;5.558;2023-03-24T06:35:31;13.20;99.90
7738;DHT22;29398;45.328;5.558;2023-03-24T06:36:41;13.20;99.90
7738;DHT22;29398;45.328;5.558;2023-03-24T06:37:43;13.10;99.90
7738;DHT22;29398;45.328;5.558;2023-03-24T06:38:48;13.00;99.90
7738;DHT22;29398;45.328;5.558;2023-03-24T06:39:52;13.00;99.90
7738;DHT22;29398;45.328;5.558;2023-03-24T06:40:59;13.10;99.90
7738;DHT22;29398;45.328;5.558;2023-03-24T06:42:00;13.10;99.90
7738;DHT22;29398;45.328;5.558;2023-03-24T06:43:03;13.10;99.90
7738;DHT22;29398;45.328;5.558;2023-03-24T06:44:06;13.10;99.90
7738;DHT22;29398;45.328;5.558;2023-03-24T06:45:09;13.20;99.90
7738;DHT22;29398;45.328;5.558;2023-03-24T06:46:10;13.20;99.90
7738;DHT22;29398;45.328;5.558;2023-03-24T06:47:17;13.20;99.90
7738;DHT22;29398;45.328;5.558;2023-03-24T06:48:19;13.30;99.90
7738;DHT22;29398;45.328;5.558;2023-03-24T06:49:23;13.30;99.90
7738;DHT22;29398;45.328;5.558;2023-03-24T06:50:26;13.30;99.90
7738;DHT22;29398;45.328;5.558;2023-03-24T06:51:33;13.30;99.90
7738;DHT22;29398;45.328;5.558;2023-03-24T06:52:37;13.30;99.90
7738;DHT22;29398;45.328;5.558;2023-03-24T06:53:39;13.30;99.90
7738;DHT22;29398;45.328;5.558;2023-03-24T06:54:45;13.30;99.90
7738;DHT22;29398;45.328;5.558;2023-03-24T06:55:47;13.30;99.90
7738;DHT22;29398;45.328;5.558;2023-03-24T06:56:48;13.30;99.90
7738;DHT22;29398;45.328;5.558;2023-03-24T06:57:53;13.30;99.90
7738;DHT22;29398;45.328;5.558;2023-03-24T06:59:18;13.30;99.90
7738;DHT22;29398;45.328;5.558;2023-03-24T07:00:24;13.30;99.90
7738;DHT22;29398;45.328;5.558;2023-03-24T07:01:36;13.30;99.60
7738;DHT22;29398;45.328;5.558;2023-03-24T07:02:50;13.30;99.80
7738;DHT22;29398;45.328;5.558;2023-03-24T07:03:52;13.20;99.90
7738;DHT22;29398;45.328;5.558;2023-03-24T07:05:24;13.30;99.90
7738;DHT22;29398;45.328;5.558;2023-03-24T07:06:27;13.20;99.60
7738;DHT22;29398;45.328;5.558;2023-03-24T07:07:32;13.20;99.90
7738;DHT22;29398;45.328;5.558;2023-03-24T07:08:54;13.20;99.90
7738;DHT22;29398;45.328;5.558;2023-03-24T07:09:59;13.30;99.80
7738;DHT22;29398;45.328;5.558;2023-03-24T07:11:00;13.20;99.60
7738;DHT22;29398;45.328;5.558;2023-03-24T07:12:05;13.20;99.80
7738;DHT22;29398;45.328;5.558;2023-03-24T07:13:08;13.20;99.60
7738;DHT22;29398;45.328;5.558;2023-03-24T07:14:11;13.20;99.70
7738;DHT22;29398;45.328;5.558;2023-03-24T07:15:15;13.20;99.40
7738;DHT22;29398;45.328;5.558;2023-03-24T07:16:17;13.20;99.40
7738;DHT22;29398;45.328;5.558;2023-03-24T07:17:20;13.20;99.70
7738;DHT22;29398;45.328;5.558;2023-03-24T07:18:41;13.20;99.80
7738;DHT22;29398;45.328;5.558;2023-03-24T07:19:44;13.20;99.80
7738;DHT22;29398;45.328;5.558;2023-03-24T07:21:04;13.20;99.80
7738;DHT22;29398;45.328;5.558;2023-03-24T07:22:08;13.20;99.90
7738;DHT22;29398;45.328;5.558;2023-03-24T07:23:27;13.30;99.90
7738;DHT22;29398;45.328;5.558;2023-03-24T07:24:54;13.30;99.90
7738;DHT22;29398;45.328;5.558;2023-03-24T07:26:16;13.40;99.90